sensor_id;sensor_type;location;lat;lon;timestamp;P1;durP1;ratioP1;P2;durP2;ratioP2
48935;SDS011;34745;52.276;10.528;2022-12-18T00:02:12;40.33;;;24.53;;
48935;SDS011;34745;52.276;10.528;2022-12-18T00:04:39;41.00;;;24.47;;
48935;SDS011;34745;52.276;10.528;2022-12-18T00:07:07;42.50;;;25.20;;
48935;SDS011;34745;52.276;10.528;2022-12-18T00:09:35;41.47;;;25.20;;
48935;SDS011;34745;52.276;10.528;2022-12-18T00:12:05;40.00;;;24.47;;
48935;SDS011;34745;52.276;10.528;2022-12-18T00:14:41;38.20;;;24.50;;
48935;SDS011;34745;52.276;10.528;2022-12-18T00:17:11;39.50;;;23.40;;
48935;SDS011;34745;52.276;10.528;2022-12-18T00:19:38;45.33;;;26.37;;
48935;SDS011;34745;52.276;10.528;2022-12-18T00:22:05;42.70;;;24.50;;
48935;SDS011;34745;52.276;10.528;2022-12-18T00:24:34;42.63;;;25.00;;
48935;SDS011;34745;52.276;10.528;2022-12-18T00:27:01;44.33;;;25.77;;
48935;SDS011;34745;52.276;10.528;2022-12-18T00:29:28;43.53;;;24.60;;
48935;SDS011;34745;52.276;10.528;2022-12-18T00:31:55;44.13;;;26.10;;
48935;SDS011;34745;52.276;10.528;2022-12-18T00:34:22;44.83;;;25.73;;
48935;SDS011;34745;52.276;10.528;2022-12-18T00:36:49;41.63;;;23.63;;
48935;SDS011;34745;52.276;10.528;2022-12-18T00:39:16;40.37;;;24.50;;
48935;SDS011;34745;52.276;10.528;2022-12-18T00:41:45;40.93;;;24.93;;
48935;SDS011;34745;52.276;10.528;2022-12-18T00:44:30;39.03;;;24.03;;
48935;SDS011;34745;52.276;10.528;2022-12-18T00:46:58;40.77;;;24.50;;
48935;SDS011;34745;52.276;10.528;2022-12-18T00:49:25;45.63;;;25.03;;
48935;SDS011;34745;52.276;10.528;2022-12-18T00:51:52;44.83;;;25.23;;
48935;SDS011;34745;52.276;10.528;2022-12-18T00:54:19;38.37;;;23.80;;
48935;SDS011;34745;52.276;10.528;2022-12-18T00:56:48;42.33;;;24.90;;
48935;SDS011;34745;52.276;10.528;2022-12-18T00:59:16;42.73;;;25.60;;
48935;SDS011;34745;52.276;10.528;2022-12-18T01:01:43;42.53;;;25.00;;
48935;SDS011;34745;52.276;10.528;2022-12-18T01:04:11;46.23;;;25.17;;
48935;SDS011;34745;52.276;10.528;2022-12-18T01:06:38;47.43;;;25.07;;
48935;SDS011;34745;52.276;10.528;2022-12-18T01:09:06;45.47;;;25.70;;
48935;SDS011;34745;52.276;10.528;2022-12-18T01:11:33;46.97;;;25.83;;
48935;SDS011;34745;52.276;10.528;2022-12-18T01:14:02;44.07;;;26.20;;
48935;SDS011;34745;52.276;10.528;2022-12-18T01:16:28;47.77;;;25.73;;
48935;SDS011;34745;52.276;10.528;2022-12-18T01:18:56;45.30;;;25.70;;
48935;SDS011;34745;52.276;10.528;2022-12-18T01:21:24;48.67;;;27.73;;
48935;SDS011;34745;52.276;10.528;2022-12-18T01:23:52;47.10;;;25.63;;
48935;SDS011;34745;52.276;10.528;2022-12-18T01:26:20;41.50;;;26.00;;
48935;SDS011;34745;52.276;10.528;2022-12-18T01:28:47;49.13;;;27.60;;
48935;SDS011;34745;52.276;10.528;2022-12-18T01:31:17;47.07;;;26.33;;
48935;SDS011;34745;52.276;10.528;2022-12-18T01:33:46;44.77;;;26.33;;
48935;SDS011;34745;52.276;10.528;2022-12-18T01:36:15;45.73;;;26.23;;
48935;SDS011;34745;52.276;10.528;2022-12-18T01:38:45;46.00;;;26.23;;
48935;SDS011;34745;52.276;10.528;2022-12-18T01:41:12;45.67;;;25.83;;
48935;SDS011;34745;52.276;10.528;2022-12-18T01:43:46;42.97;;;25.13;;
48935;SDS011;34745;52.276;10.528;2022-12-18T01:46:18;46.03;;;24.50;;
48935;SDS011;34745;52.276;10.528;2022-12-18T01:48:48;46.27;;;26.53;;
48935;SDS011;34745;52.276;10.528;2022-12-18T01:51:16;43.60;;;24.40;;
48935;SDS011;34745;52.276;10.528;2022-12-18T01:53:44;48.43;;;26.60;;
48935;SDS011;34745;52.276;10.528;2022-12-18T01:56:13;43.80;;;25.83;;
48935;SDS011;34745;52.276;10.528;2022-12-18T01:58:45;41.53;;;24.70;;
48935;SDS011;34745;52.276;10.528;2022-12-18T02:01:19;44.63;;;24.03;;
48935;SDS011;34745;52.276;10.528;2022-12-18T02:03:48;50.60;;;25.97;;
48935;SDS011;34745;52.276;10.528;2022-12-18T02:06:16;43.07;;;26.23;;
48935;SDS011;34745;52.276;10.528;2022-12-18T02:08:49;50.73;;;26.40;;
48935;SDS011;34745;52.276;10.528;2022-12-18T02:11:29;42.47;;;25.37;;
48935;SDS011;34745;52.276;10.528;2022-12-18T02:14:07;43.87;;;25.13;;
48935;SDS011;34745;52.276;10.528;2022-12-18T02:16:47;43.80;;;25.07;;
48935;SDS011;34745;52.276;10.528;2022-12-18T02:19:35;39.90;;;24.30;;
48935;SDS011;34745;52.276;10.528;2022-12-18T02:22:11;41.17;;;23.33;;
48935;SDS011;34745;52.276;10.528;2022-12-18T02:24:55;48.43;;;25.70;;
48935;SDS011;34745;52.276;10.528;2022-12-18T02:27:29;44.67;;;25.13;;
48935;SDS011;34745;52.276;10.528;2022-12-18T02:29:58;45.20;;;24.93;;
48935;SDS011;34745;52.276;10.528;2022-12-18T02:32:28;45.20;;;25.77;;
48935;SDS011;34745;52.276;10.528;2022-12-18T02:34:59;40.90;;;23.17;;
48935;SDS011;34745;52.276;10.528;2022-12-18T02:37:28;46.40;;;23.97;;
48935;SDS011;34745;52.276;10.528;2022-12-18T02:39:58;45.57;;;24.27;;
48935;SDS011;34745;52.276;10.528;2022-12-18T02:42:26;39.57;;;24.23;;
48935;SDS011;34745;52.276;10.528;2022-12-18T02:44:56;44.17;;;25.10;;
48935;SDS011;34745;52.276;10.528;2022-12-18T02:47:24;42.73;;;24.90;;
48935;SDS011;34745;52.276;10.528;2022-12-18T02:49:56;44.03;;;23.67;;
48935;SDS011;34745;52.276;10.528;2022-12-18T02:52:31;37.90;;;23.07;;
48935;SDS011;34745;52.276;10.528;2022-12-18T02:55:08;40.07;;;22.80;;
48935;SDS011;34745;52.276;10.528;2022-12-18T02:57:48;37.73;;;22.77;;
48935;SDS011;34745;52.276;10.528;2022-12-18T03:00:20;39.27;;;21.67;;
48935;SDS011;34745;52.276;10.528;2022-12-18T03:02:51;44.07;;;22.17;;
48935;SDS011;34745;52.276;10.528;2022-12-18T03:05:25;36.57;;;21.93;;
48935;SDS011;34745;52.276;10.528;2022-12-18T03:07:59;39.83;;;22.60;;
48935;SDS011;34745;52.276;10.528;2022-12-18T03:10:31;37.13;;;22.37;;
48935;SDS011;34745;52.276;10.528;2022-12-18T03:13:04;40.80;;;22.63;;
48935;SDS011;34745;52.276;10.528;2022-12-18T03:15:35;39.20;;;21.70;;
48935;SDS011;34745;52.276;10.528;2022-12-18T03:18:07;42.23;;;24.37;;
48935;SDS011;34745;52.276;10.528;2022-12-18T03:20:37;39.27;;;22.37;;
48935;SDS011;34745;52.276;10.528;2022-12-18T03:23:09;44.33;;;24.33;;
48935;SDS011;34745;52.276;10.528;2022-12-18T03:25:39;40.90;;;21.63;;
48935;SDS011;34745;52.276;10.528;2022-12-18T03:28:12;41.37;;;22.20;;
48935;SDS011;34745;52.276;10.528;2022-12-18T03:30:41;38.43;;;22.07;;
48935;SDS011;34745;52.276;10.528;2022-12-18T03:33:12;45.73;;;22.63;;
48935;SDS011;34745;52.276;10.528;2022-12-18T03:35:44;38.33;;;22.17;;
48935;SDS011;34745;52.276;10.528;2022-12-18T03:38:12;38.57;;;22.70;;
48935;SDS011;34745;52.276;10.528;2022-12-18T03:40:43;39.73;;;22.03;;
48935;SDS011;34745;52.276;10.528;2022-12-18T03:43:20;42.70;;;21.03;;
48935;SDS011;34745;52.276;10.528;2022-12-18T03:45:56;36.63;;;21.63;;
48935;SDS011;34745;52.276;10.528;2022-12-18T03:48:29;40.50;;;22.03;;
48935;SDS011;34745;52.276;10.528;2022-12-18T03:51:05;36.47;;;21.73;;
48935;SDS011;34745;52.276;10.528;2022-12-18T03:53:36;35.67;;;20.50;;
48935;SDS011;34745;52.276;10.528;2022-12-18T03:56:08;39.43;;;21.10;;
48935;SDS011;34745;52.276;10.528;2022-12-18T03:58:39;35.97;;;21.50;;
48935;SDS011;34745;52.276;10.528;2022-12-18T04:01:08;31.40;;;20.23;;
48935;SDS011;34745;52.276;10.528;2022-12-18T04:03:38;36.20;;;21.53;;
48935;SDS011;34745;52.276;10.528;2022-12-18T04:06:07;38.50;;;20.60;;
48935;SDS011;34745;52.276;10.528;2022-12-18T04:08:36;36.77;;;21.93;;
48935;SDS011;34745;52.276;10.528;2022-12-18T04:11:04;39.80;;;21.17;;
48935;SDS011;34745;52.276;10.528;2022-12-18T04:13:33;34.93;;;20.97;;
48935;SDS011;34745;52.276;10.528;2022-12-18T04:16:04;37.47;;;21.70;;
48935;SDS011;34745;52.276;10.528;2022-12-18T04:18:32;38.07;;;20.93;;
48935;SDS011;34745;52.276;10.528;2022-12-18T04:20:59;39.40;;;21.10;;
48935;SDS011;34745;52.276;10.528;2022-12-18T04:23:27;37.77;;;21.00;;
48935;SDS011;34745;52.276;10.528;2022-12-18T04:25:54;36.43;;;20.67;;
48935;SDS011;34745;52.276;10.528;2022-12-18T04:28:21;39.10;;;21.57;;
48935;SDS011;34745;52.276;10.528;2022-12-18T04:30:49;43.47;;;22.20;;
48935;SDS011;34745;52.276;10.528;2022-12-18T04:33:18;41.60;;;22.27;;
48935;SDS011;34745;52.276;10.528;2022-12-18T04:35:45;33.97;;;21.80;;
48935;SDS011;34745;52.276;10.528;2022-12-18T04:38:12;41.33;;;22.97;;
48935;SDS011;34745;52.276;10.528;2022-12-18T04:40:39;37.80;;;21.03;;
48935;SDS011;34745;52.276;10.528;2022-12-18T04:43:07;37.97;;;22.27;;
48935;SDS011;34745;52.276;10.528;2022-12-18T04:45:34;40.10;;;21.70;;
48935;SDS011;34745;52.276;10.528;2022-12-18T04:48:02;38.27;;;22.63;;
48935;SDS011;34745;52.276;10.528;2022-12-18T04:50:31;41.47;;;21.90;;
48935;SDS011;34745;52.276;10.528;2022-12-18T04:52:59;40.47;;;23.13;;
48935;SDS011;34745;52.276;10.528;2022-12-18T04:55:25;37.93;;;21.30;;
48935;SDS011;34745;52.276;10.528;2022-12-18T04:57:53;38.80;;;22.73;;
48935;SDS011;34745;52.276;10.528;2022-12-18T05:00:20;40.50;;;21.67;;
48935;SDS011;34745;52.276;10.528;2022-12-18T05:02:48;40.73;;;22.77;;
48935;SDS011;34745;52.276;10.528;2022-12-18T05:05:15;40.07;;;22.30;;
48935;SDS011;34745;52.276;10.528;2022-12-18T05:07:44;42.93;;;21.80;;
48935;SDS011;34745;52.276;10.528;2022-12-18T05:10:11;38.97;;;21.97;;
48935;SDS011;34745;52.276;10.528;2022-12-18T05:12:38;39.53;;;22.13;;
48935;SDS011;34745;52.276;10.528;2022-12-18T05:15:26;43.37;;;22.50;;
48935;SDS011;34745;52.276;10.528;2022-12-18T05:17:55;37.10;;;21.13;;
48935;SDS011;34745;52.276;10.528;2022-12-18T05:20:22;41.03;;;22.17;;
48935;SDS011;34745;52.276;10.528;2022-12-18T05:22:51;39.10;;;22.90;;
48935;SDS011;34745;52.276;10.528;2022-12-18T05:25:19;39.20;;;21.43;;
48935;SDS011;34745;52.276;10.528;2022-12-18T05:27:46;39.80;;;21.80;;
48935;SDS011;34745;52.276;10.528;2022-12-18T05:30:14;43.50;;;22.03;;
48935;SDS011;34745;52.276;10.528;2022-12-18T05:32:41;40.33;;;21.13;;
48935;SDS011;34745;52.276;10.528;2022-12-18T05:35:09;36.10;;;20.20;;
48935;SDS011;34745;52.276;10.528;2022-12-18T05:37:37;45.83;;;22.50;;
48935;SDS011;34745;52.276;10.528;2022-12-18T05:40:10;40.70;;;21.20;;
48935;SDS011;34745;52.276;10.528;2022-12-18T05:42:38;35.80;;;20.50;;
48935;SDS011;34745;52.276;10.528;2022-12-18T05:45:06;36.57;;;19.50;;
48935;SDS011;34745;52.276;10.528;2022-12-18T05:47:33;43.97;;;21.33;;
48935;SDS011;34745;52.276;10.528;2022-12-18T05:50:00;35.17;;;20.13;;
48935;SDS011;34745;52.276;10.528;2022-12-18T05:52:27;43.77;;;22.33;;
48935;SDS011;34745;52.276;10.528;2022-12-18T05:54:55;45.60;;;21.30;;
48935;SDS011;34745;52.276;10.528;2022-12-18T05:57:23;39.53;;;20.50;;
48935;SDS011;34745;52.276;10.528;2022-12-18T05:59:50;42.30;;;21.23;;
48935;SDS011;34745;52.276;10.528;2022-12-18T06:02:18;38.60;;;19.60;;
48935;SDS011;34745;52.276;10.528;2022-12-18T06:04:47;40.43;;;21.63;;
48935;SDS011;34745;52.276;10.528;2022-12-18T06:07:14;42.77;;;21.77;;
48935;SDS011;34745;52.276;10.528;2022-12-18T06:09:42;40.83;;;20.50;;
48935;SDS011;34745;52.276;10.528;2022-12-18T06:12:09;43.67;;;22.00;;
48935;SDS011;34745;52.276;10.528;2022-12-18T06:14:38;40.20;;;22.77;;
48935;SDS011;34745;52.276;10.528;2022-12-18T06:17:06;44.90;;;22.63;;
48935;SDS011;34745;52.276;10.528;2022-12-18T06:19:33;44.00;;;21.53;;
48935;SDS011;34745;52.276;10.528;2022-12-18T06:21:59;43.53;;;21.17;;
48935;SDS011;34745;52.276;10.528;2022-12-18T06:24:27;42.63;;;21.43;;
48935;SDS011;34745;52.276;10.528;2022-12-18T06:26:54;39.97;;;19.07;;
48935;SDS011;34745;52.276;10.528;2022-12-18T06:29:21;37.60;;;19.73;;
48935;SDS011;34745;52.276;10.528;2022-12-18T06:31:50;36.50;;;20.20;;
48935;SDS011;34745;52.276;10.528;2022-12-18T06:34:17;38.70;;;21.93;;
48935;SDS011;34745;52.276;10.528;2022-12-18T06:36:44;41.37;;;20.70;;
48935;SDS011;34745;52.276;10.528;2022-12-18T06:39:11;40.93;;;20.90;;
48935;SDS011;34745;52.276;10.528;2022-12-18T06:41:38;44.53;;;21.93;;
48935;SDS011;34745;52.276;10.528;2022-12-18T06:44:05;38.63;;;20.70;;
48935;SDS011;34745;52.276;10.528;2022-12-18T06:46:33;37.53;;;20.83;;
48935;SDS011;34745;52.276;10.528;2022-12-18T06:49:01;41.07;;;20.97;;
48935;SDS011;34745;52.276;10.528;2022-12-18T06:51:28;47.23;;;20.37;;
48935;SDS011;34745;52.276;10.528;2022-12-18T06:53:55;39.63;;;21.13;;
48935;SDS011;34745;52.276;10.528;2022-12-18T06:56:22;38.17;;;20.80;;
48935;SDS011;34745;52.276;10.528;2022-12-18T06:58:50;40.70;;;22.00;;
48935;SDS011;34745;52.276;10.528;2022-12-18T07:01:17;41.23;;;21.77;;
48935;SDS011;34745;52.276;10.528;2022-12-18T07:03:44;40.97;;;21.53;;
48935;SDS011;34745;52.276;10.528;2022-12-18T07:06:15;35.07;;;19.90;;
48935;SDS011;34745;52.276;10.528;2022-12-18T07:08:43;40.37;;;20.77;;
48935;SDS011;34745;52.276;10.528;2022-12-18T07:11:11;38.93;;;21.27;;
48935;SDS011;34745;52.276;10.528;2022-12-18T07:13:38;42.93;;;22.37;;
48935;SDS011;34745;52.276;10.528;2022-12-18T07:16:07;44.67;;;22.43;;
48935;SDS011;34745;52.276;10.528;2022-12-18T07:18:46;39.73;;;20.23;;
48935;SDS011;34745;52.276;10.528;2022-12-18T07:21:15;44.00;;;21.53;;
48935;SDS011;34745;52.276;10.528;2022-12-18T07:23:43;44.27;;;22.07;;
48935;SDS011;34745;52.276;10.528;2022-12-18T07:26:14;40.27;;;22.53;;
48935;SDS011;34745;52.276;10.528;2022-12-18T07:28:43;40.70;;;21.07;;
48935;SDS011;34745;52.276;10.528;2022-12-18T07:31:11;45.70;;;22.30;;
48935;SDS011;34745;52.276;10.528;2022-12-18T07:33:39;39.27;;;21.37;;
48935;SDS011;34745;52.276;10.528;2022-12-18T07:36:07;48.10;;;21.90;;
48935;SDS011;34745;52.276;10.528;2022-12-18T07:38:38;44.33;;;22.77;;
48935;SDS011;34745;52.276;10.528;2022-12-18T07:41:06;38.57;;;21.77;;
48935;SDS011;34745;52.276;10.528;2022-12-18T07:43:35;42.47;;;22.53;;
48935;SDS011;34745;52.276;10.528;2022-12-18T07:46:02;40.77;;;21.37;;
48935;SDS011;34745;52.276;10.528;2022-12-18T07:48:31;52.40;;;23.70;;
48935;SDS011;34745;52.276;10.528;2022-12-18T07:50:58;46.17;;;22.30;;
48935;SDS011;34745;52.276;10.528;2022-12-18T07:53:27;42.73;;;21.70;;
48935;SDS011;34745;52.276;10.528;2022-12-18T07:55:56;46.80;;;22.57;;
48935;SDS011;34745;52.276;10.528;2022-12-18T07:58:47;45.33;;;20.93;;
48935;SDS011;34745;52.276;10.528;2022-12-18T08:01:14;48.13;;;22.70;;
48935;SDS011;34745;52.276;10.528;2022-12-18T08:03:42;47.73;;;22.67;;
48935;SDS011;34745;52.276;10.528;2022-12-18T08:06:09;50.23;;;23.53;;
48935;SDS011;34745;52.276;10.528;2022-12-18T08:08:37;57.47;;;24.43;;
48935;SDS011;34745;52.276;10.528;2022-12-18T08:11:05;51.33;;;23.77;;
48935;SDS011;34745;52.276;10.528;2022-12-18T08:13:32;46.50;;;22.90;;
48935;SDS011;34745;52.276;10.528;2022-12-18T08:16:00;46.90;;;22.10;;
48935;SDS011;34745;52.276;10.528;2022-12-18T08:18:29;44.07;;;22.67;;
48935;SDS011;34745;52.276;10.528;2022-12-18T08:21:02;52.97;;;23.23;;
48935;SDS011;34745;52.276;10.528;2022-12-18T08:23:34;43.87;;;22.17;;
48935;SDS011;34745;52.276;10.528;2022-12-18T08:26:09;44.67;;;22.63;;
48935;SDS011;34745;52.276;10.528;2022-12-18T08:28:37;44.87;;;22.20;;
48935;SDS011;34745;52.276;10.528;2022-12-18T08:31:04;47.37;;;21.37;;
48935;SDS011;34745;52.276;10.528;2022-12-18T08:33:32;41.67;;;21.03;;
48935;SDS011;34745;52.276;10.528;2022-12-18T08:36:00;41.97;;;21.23;;
48935;SDS011;34745;52.276;10.528;2022-12-18T08:38:28;44.13;;;20.87;;
48935;SDS011;34745;52.276;10.528;2022-12-18T08:40:57;48.03;;;21.93;;
48935;SDS011;34745;52.276;10.528;2022-12-18T08:43:27;37.60;;;21.07;;
48935;SDS011;34745;52.276;10.528;2022-12-18T08:46:12;41.70;;;21.10;;
48935;SDS011;34745;52.276;10.528;2022-12-18T08:48:40;35.70;;;20.10;;
48935;SDS011;34745;52.276;10.528;2022-12-18T08:51:07;45.87;;;20.50;;
48935;SDS011;34745;52.276;10.528;2022-12-18T08:53:36;36.10;;;20.80;;
48935;SDS011;34745;52.276;10.528;2022-12-18T08:56:04;38.43;;;19.30;;
48935;SDS011;34745;52.276;10.528;2022-12-18T08:58:33;37.10;;;19.10;;
48935;SDS011;34745;52.276;10.528;2022-12-18T09:01:01;35.20;;;19.00;;
48935;SDS011;34745;52.276;10.528;2022-12-18T09:03:29;38.93;;;18.80;;
48935;SDS011;34745;52.276;10.528;2022-12-18T09:05:56;34.73;;;18.30;;
48935;SDS011;34745;52.276;10.528;2022-12-18T09:08:23;43.83;;;19.83;;
48935;SDS011;34745;52.276;10.528;2022-12-18T09:10:50;36.87;;;19.23;;
48935;SDS011;34745;52.276;10.528;2022-12-18T09:13:17;36.60;;;19.30;;
48935;SDS011;34745;52.276;10.528;2022-12-18T09:15:47;40.33;;;19.57;;
48935;SDS011;34745;52.276;10.528;2022-12-18T09:18:16;36.27;;;20.17;;
48935;SDS011;34745;52.276;10.528;2022-12-18T09:20:45;33.67;;;18.50;;
48935;SDS011;34745;52.276;10.528;2022-12-18T09:23:12;31.13;;;17.97;;
48935;SDS011;34745;52.276;10.528;2022-12-18T09:25:39;35.27;;;18.47;;
48935;SDS011;34745;52.276;10.528;2022-12-18T09:28:10;33.50;;;19.03;;
48935;SDS011;34745;52.276;10.528;2022-12-18T09:30:39;35.37;;;19.70;;
48935;SDS011;34745;52.276;10.528;2022-12-18T09:33:08;36.27;;;20.13;;
48935;SDS011;34745;52.276;10.528;2022-12-18T09:35:36;35.27;;;18.37;;
48935;SDS011;34745;52.276;10.528;2022-12-18T09:38:03;34.13;;;18.50;;
48935;SDS011;34745;52.276;10.528;2022-12-18T09:40:32;37.63;;;19.80;;
48935;SDS011;34745;52.276;10.528;2022-12-18T09:43:03;29.27;;;17.50;;
48935;SDS011;34745;52.276;10.528;2022-12-18T09:45:35;37.60;;;19.67;;
48935;SDS011;34745;52.276;10.528;2022-12-18T09:48:10;33.33;;;17.77;;
48935;SDS011;34745;52.276;10.528;2022-12-18T09:50:45;31.17;;;17.73;;
48935;SDS011;34745;52.276;10.528;2022-12-18T09:53:15;33.77;;;17.80;;
48935;SDS011;34745;52.276;10.528;2022-12-18T09:55:45;41.40;;;21.80;;
48935;SDS011;34745;52.276;10.528;2022-12-18T09:58:15;36.23;;;19.43;;
48935;SDS011;34745;52.276;10.528;2022-12-18T10:00:46;34.63;;;18.47;;
48935;SDS011;34745;52.276;10.528;2022-12-18T10:03:15;34.00;;;17.60;;
48935;SDS011;34745;52.276;10.528;2022-12-18T10:05:44;26.57;;;16.53;;
48935;SDS011;34745;52.276;10.528;2022-12-18T10:08:22;27.23;;;16.20;;
48935;SDS011;34745;52.276;10.528;2022-12-18T10:10:56;28.47;;;15.93;;
48935;SDS011;34745;52.276;10.528;2022-12-18T10:13:29;30.57;;;15.20;;
48935;SDS011;34745;52.276;10.528;2022-12-18T10:16:04;25.27;;;14.90;;
48935;SDS011;34745;52.276;10.528;2022-12-18T10:21:39;24.67;;;15.07;;
48935;SDS011;34745;52.276;10.528;2022-12-18T10:24:12;27.00;;;15.03;;
48935;SDS011;34745;52.276;10.528;2022-12-18T10:26:47;22.13;;;14.03;;
48935;SDS011;34745;52.276;10.528;2022-12-18T10:29:15;27.47;;;14.60;;
48935;SDS011;34745;52.276;10.528;2022-12-18T10:31:43;23.57;;;14.63;;
48935;SDS011;34745;52.276;10.528;2022-12-18T10:34:12;26.07;;;13.60;;
48935;SDS011;34745;52.276;10.528;2022-12-18T10:36:39;23.43;;;14.27;;
48935;SDS011;34745;52.276;10.528;2022-12-18T10:39:16;29.37;;;14.60;;
48935;SDS011;34745;52.276;10.528;2022-12-18T10:41:45;25.70;;;14.87;;
48935;SDS011;34745;52.276;10.528;2022-12-18T10:44:15;27.30;;;14.20;;
48935;SDS011;34745;52.276;10.528;2022-12-18T10:46:44;26.93;;;13.97;;
48935;SDS011;34745;52.276;10.528;2022-12-18T10:49:24;26.80;;;14.03;;
48935;SDS011;34745;52.276;10.528;2022-12-18T10:52:04;22.63;;;13.77;;
48935;SDS011;34745;52.276;10.528;2022-12-18T10:54:33;23.07;;;14.17;;
48935;SDS011;34745;52.276;10.528;2022-12-18T10:57:15;28.43;;;15.67;;
48935;SDS011;34745;52.276;10.528;2022-12-18T10:59:49;24.63;;;14.97;;
48935;SDS011;34745;52.276;10.528;2022-12-18T11:02:24;25.27;;;15.53;;
48935;SDS011;34745;52.276;10.528;2022-12-18T11:04:56;30.10;;;15.97;;
48935;SDS011;34745;52.276;10.528;2022-12-18T11:07:24;29.83;;;16.70;;
48935;SDS011;34745;52.276;10.528;2022-12-18T11:09:59;30.10;;;16.83;;
48935;SDS011;34745;52.276;10.528;2022-12-18T11:12:28;34.67;;;17.83;;
48935;SDS011;34745;52.276;10.528;2022-12-18T11:14:55;27.73;;;15.47;;
48935;SDS011;34745;52.276;10.528;2022-12-18T11:17:31;28.27;;;17.47;;
48935;SDS011;34745;52.276;10.528;2022-12-18T11:20:03;28.33;;;16.13;;
48935;SDS011;34745;52.276;10.528;2022-12-18T11:22:34;31.23;;;17.37;;
48935;SDS011;34745;52.276;10.528;2022-12-18T11:25:03;28.80;;;16.50;;
48935;SDS011;34745;52.276;10.528;2022-12-18T11:27:54;31.13;;;16.67;;
48935;SDS011;34745;52.276;10.528;2022-12-18T11:30:24;30.63;;;17.77;;
48935;SDS011;34745;52.276;10.528;2022-12-18T11:32:54;26.70;;;17.10;;
48935;SDS011;34745;52.276;10.528;2022-12-18T11:35:30;27.23;;;17.10;;
48935;SDS011;34745;52.276;10.528;2022-12-18T11:38:04;34.77;;;16.50;;
48935;SDS011;34745;52.276;10.528;2022-12-18T11:40:38;26.83;;;17.00;;
48935;SDS011;34745;52.276;10.528;2022-12-18T11:43:09;26.60;;;16.50;;
48935;SDS011;34745;52.276;10.528;2022-12-18T11:45:40;27.07;;;16.20;;
48935;SDS011;34745;52.276;10.528;2022-12-18T11:48:14;27.27;;;15.70;;
48935;SDS011;34745;52.276;10.528;2022-12-18T11:50:46;27.33;;;16.40;;
48935;SDS011;34745;52.276;10.528;2022-12-18T11:53:16;25.47;;;15.93;;
48935;SDS011;34745;52.276;10.528;2022-12-18T11:55:48;25.87;;;15.07;;
48935;SDS011;34745;52.276;10.528;2022-12-18T11:58:26;26.53;;;15.80;;
48935;SDS011;34745;52.276;10.528;2022-12-18T12:01:07;26.77;;;15.40;;
48935;SDS011;34745;52.276;10.528;2022-12-18T12:03:49;23.53;;;15.97;;
48935;SDS011;34745;52.276;10.528;2022-12-18T12:06:37;21.83;;;14.70;;
48935;SDS011;34745;52.276;10.528;2022-12-18T12:09:14;24.07;;;15.13;;
48935;SDS011;34745;52.276;10.528;2022-12-18T12:11:51;23.77;;;14.67;;
48935;SDS011;34745;52.276;10.528;2022-12-18T12:14:28;19.23;;;12.93;;
48935;SDS011;34745;52.276;10.528;2022-12-18T12:17:07;18.03;;;11.93;;
48935;SDS011;34745;52.276;10.528;2022-12-18T12:19:43;15.93;;;11.10;;
48935;SDS011;34745;52.276;10.528;2022-12-18T12:22:18;17.40;;;11.03;;
48935;SDS011;34745;52.276;10.528;2022-12-18T12:24:57;16.47;;;11.10;;
48935;SDS011;34745;52.276;10.528;2022-12-18T12:27:37;17.53;;;11.50;;
48935;SDS011;34745;52.276;10.528;2022-12-18T12:30:11;26.47;;;13.70;;
48935;SDS011;34745;52.276;10.528;2022-12-18T12:32:50;21.00;;;12.23;;
48935;SDS011;34745;52.276;10.528;2022-12-18T12:35:36;15.93;;;11.17;;
48935;SDS011;34745;52.276;10.528;2022-12-18T12:38:12;21.53;;;12.80;;
48935;SDS011;34745;52.276;10.528;2022-12-18T12:40:43;15.57;;;10.73;;
48935;SDS011;34745;52.276;10.528;2022-12-18T12:43:24;15.67;;;11.00;;
48935;SDS011;34745;52.276;10.528;2022-12-18T12:45:55;18.63;;;11.60;;
48935;SDS011;34745;52.276;10.528;2022-12-18T12:48:32;15.67;;;10.50;;
48935;SDS011;34745;52.276;10.528;2022-12-18T12:51:07;16.50;;;10.97;;
48935;SDS011;34745;52.276;10.528;2022-12-18T12:53:39;15.93;;;11.17;;
48935;SDS011;34745;52.276;10.528;2022-12-18T12:56:08;17.67;;;11.70;;
48935;SDS011;34745;52.276;10.528;2022-12-18T12:58:39;22.23;;;12.50;;
48935;SDS011;34745;52.276;10.528;2022-12-18T13:01:16;16.30;;;11.10;;
48935;SDS011;34745;52.276;10.528;2022-12-18T13:03:56;16.90;;;11.20;;
48935;SDS011;34745;52.276;10.528;2022-12-18T13:06:37;20.80;;;11.37;;
48935;SDS011;34745;52.276;10.528;2022-12-18T13:09:12;21.20;;;13.43;;
48935;SDS011;34745;52.276;10.528;2022-12-18T13:11:40;20.13;;;12.90;;
48935;SDS011;34745;52.276;10.528;2022-12-18T13:14:28;19.27;;;11.47;;
48935;SDS011;34745;52.276;10.528;2022-12-18T13:17:16;34.40;;;17.07;;
48935;SDS011;34745;52.276;10.528;2022-12-18T13:20:07;38.87;;;20.30;;
48935;SDS011;34745;52.276;10.528;2022-12-18T13:22:38;28.77;;;16.83;;
48935;SDS011;34745;52.276;10.528;2022-12-18T13:25:32;24.73;;;14.07;;
48935;SDS011;34745;52.276;10.528;2022-12-18T13:28:08;22.03;;;12.73;;
48935;SDS011;34745;52.276;10.528;2022-12-18T13:30:45;20.57;;;12.43;;
48935;SDS011;34745;52.276;10.528;2022-12-18T13:36:34;15.13;;;9.83;;
48935;SDS011;34745;52.276;10.528;2022-12-18T13:45:40;15.50;;;10.40;;
48935;SDS011;34745;52.276;10.528;2022-12-18T13:48:16;16.83;;;10.73;;
48935;SDS011;34745;52.276;10.528;2022-12-18T13:50:48;18.70;;;11.70;;
48935;SDS011;34745;52.276;10.528;2022-12-18T13:53:20;20.03;;;12.20;;
48935;SDS011;34745;52.276;10.528;2022-12-18T13:55:51;24.03;;;12.70;;
48935;SDS011;34745;52.276;10.528;2022-12-18T13:58:19;23.70;;;13.50;;
48935;SDS011;34745;52.276;10.528;2022-12-18T14:00:47;25.33;;;14.23;;
48935;SDS011;34745;52.276;10.528;2022-12-18T14:03:19;26.10;;;14.40;;
48935;SDS011;34745;52.276;10.528;2022-12-18T14:05:52;27.00;;;15.47;;
48935;SDS011;34745;52.276;10.528;2022-12-18T14:08:21;28.23;;;16.30;;
48935;SDS011;34745;52.276;10.528;2022-12-18T14:10:51;29.57;;;16.87;;
48935;SDS011;34745;52.276;10.528;2022-12-18T14:13:21;28.53;;;16.90;;
48935;SDS011;34745;52.276;10.528;2022-12-18T14:15:53;27.10;;;17.00;;
48935;SDS011;34745;52.276;10.528;2022-12-18T14:18:23;35.70;;;18.47;;
48935;SDS011;34745;52.276;10.528;2022-12-18T14:20:52;29.30;;;17.90;;
48935;SDS011;34745;52.276;10.528;2022-12-18T14:23:26;27.47;;;16.53;;
48935;SDS011;34745;52.276;10.528;2022-12-18T14:25:58;33.77;;;17.07;;
48935;SDS011;34745;52.276;10.528;2022-12-18T14:28:32;28.13;;;16.90;;
48935;SDS011;34745;52.276;10.528;2022-12-18T14:31:16;27.90;;;17.07;;
48935;SDS011;34745;52.276;10.528;2022-12-18T14:33:44;21.80;;;14.07;;
48935;SDS011;34745;52.276;10.528;2022-12-18T14:36:13;23.40;;;13.50;;
48935;SDS011;34745;52.276;10.528;2022-12-18T14:38:43;25.23;;;14.77;;
48935;SDS011;34745;52.276;10.528;2022-12-18T14:41:17;24.53;;;13.83;;
48935;SDS011;34745;52.276;10.528;2022-12-18T14:43:47;20.40;;;13.33;;